SANTA FE DAM RAWS NEAR IRWINDALE 1NW ( HADS current weather conditions

sailwx.info

Wind from 204 at 1 knots gusting 3

Air temperature 17.2° C
Dewpoint 15.6° C

Last reported at 2017-Aug-18 09:57 UTC.
Time now 2017-Aug-18 10:55 UTC

Location: N 34°08' W 117°57'.
View on Google Maps.

See reports from other nearby stations

  
Tides and Currents Weather Stations Pressure Air Temp Water Temp Dewpoint Dewpoint Depression Visibility Wind Speed Wind Dir Waves Ship Positions
date/time (UTC)wind fromknots sea level pressurealtimeterstation pressurevisibilityair tempwater tempwave heightnotes
2017-Aug-18 09:57 204 1 gusting 3 17.2
2017-Aug-18 08:57 205 2 gusting 3 17.2
2017-Aug-18 07:57 220 1 gusting 3 17.8
2017-Aug-18 06:57 240 2 gusting 4 18.9
2017-Aug-18 05:57 233 2 gusting 4 19.4
2017-Aug-18 04:57 231 2 gusting 5 20.6
2017-Aug-18 03:57 230 2 gusting 5 21.7
2017-Aug-18 02:57 232 3 gusting 9 23.3
2017-Aug-18 01:57 235 6 gusting 11 25.6
2017-Aug-18 00:57 241 6 gusting 13 27.8
2017-Aug-17 23:57 232 8 gusting 15 28.9
2017-Aug-17 22:57 241 8 gusting 13 30.6
2017-Aug-17 21:57 228 6 gusting 12 31.1
2017-Aug-17 20:57 235 6 gusting 13 30.6
2017-Aug-17 19:57 233 5 gusting 9 28.9
2017-Aug-17 18:57 222 4 gusting 9 27.2
2017-Aug-17 17:57 246 2 gusting 8 25.6
2017-Aug-17 16:57 278 2 gusting 7 23.3
2017-Aug-17 15:57 298 3 gusting 6 21.7
2017-Aug-17 14:57 239 1 gusting 3 20.0
2017-Aug-17 13:57 210 16.1
2017-Aug-17 12:57 030 15.6
2017-Aug-17 11:57 030 15.6
2017-Aug-17 10:57 284 16.1
2017-Aug-17 09:57 273 2 gusting 3 17.2
2017-Aug-17 08:57 253 1 gusting 2 17.2
2017-Aug-17 07:57 195 2 gusting 3 17.8
2017-Aug-17 06:57 212 2 gusting 3 17.8
2017-Aug-17 05:57 229 2 gusting 4 18.3
2017-Aug-17 04:57 231 2 gusting 6 19.4
2017-Aug-17 03:57 240 3 gusting 6 20.6
2017-Aug-17 02:57 231 5 gusting 9 21.7
2017-Aug-17 01:57 228 6 gusting 12 24.4
2017-Aug-17 00:57 238 6 gusting 13 26.7
2017-Aug-16 23:57 242 6 gusting 14 28.3
2017-Aug-16 22:57 216 7 gusting 16 29.4
2017-Aug-16 21:57 255 4 gusting 12 29.4
2017-Aug-16 20:57 220 5 gusting 10 28.3
2017-Aug-16 19:57 190 3 gusting 9 26.1
2017-Aug-16 18:57 279 5 gusting 8 24.4
2017-Aug-16 17:57 148 3 gusting 10 23.3
2017-Aug-16 16:57 256 2 gusting 6 20.6
2017-Aug-16 15:57 244 2 gusting 5 19.4
2017-Aug-16 14:57 189 1 gusting 4 19.4
2017-Aug-16 13:57 181 1 gusting 3 18.9
2017-Aug-16 12:57 217 1 gusting 3 18.9
2017-Aug-16 11:57 197 18.9
2017-Aug-16 10:57 206 0 gusting 2 18.9